Time;durP1;ratioP1;P1;durP2;ratioP2;P2;SDS_P1;SDS_P2;PMS_P1;PMS_P2;Temp;Humidity;BMP_temperature;BMP_pressure;BME280_temperature;BME280_humidity;BME280_pressure;Samples;Min_cycle;Max_cycle;Signal;HPM_P1;HPM_P2
2021/04/19 00:05:18;;;;;;;3.80;3.37;;;;;;;8.06;100.00;99340.03;10586500;28;20205;-75
2021/04/19 00:10:37;;;;;;;11.60;3.00;;;;;;;8.04;100.00;99331.41;10587590;28;20173;-75
2021/04/19 00:15:56;;;;;;;2.00;1.90;;;;;;;8.14;100.00;99329.94;10587387;28;20559;-74
2021/04/19 00:21:15;;;;;;;7.27;3.77;;;;;;;7.97;100.00;99328.59;10586892;28;20208;-75
2021/04/19 00:26:34;;;;;;;4.83;2.70;;;;;;;7.95;100.00;99321.91;10586879;28;20213;-75
2021/04/19 00:31:53;;;;;;;4.97;2.90;;;;;;;8.07;100.00;99327.13;10585630;28;20216;-74
2021/04/19 00:37:12;;;;;;;4.50;2.40;;;;;;;8.03;100.00;99318.91;10586604;28;20177;-74
2021/04/19 00:42:31;;;;;;;14.70;2.57;;;;;;;7.96;100.00;99320.75;10586154;28;20212;-74
2021/04/19 00:47:50;;;;;;;5.87;3.17;;;;;;;7.93;100.00;99319.56;10583620;28;20185;-74
2021/04/19 00:53:09;;;;;;;4.47;2.07;;;;;;;7.86;100.00;99317.91;10570722;28;20185;-74
2021/04/19 00:58:33;;;;;;;7.77;3.27;;;;;;;7.81;100.00;99329.19;10585595;28;20291;-75
2021/04/19 01:03:53;;;;;;;13.50;3.80;;;;;;;7.83;100.00;99324.94;10584167;28;20603;-74
2021/04/19 01:09:12;;;;;;;5.77;2.60;;;;;;;7.81;100.00;99323.72;10585573;28;20627;-74
2021/04/19 01:14:31;;;;;;;4.53;3.67;;;;;;;7.86;100.00;99323.41;10585089;28;20283;-75
2021/04/19 01:19:50;;;;;;;5.00;2.30;;;;;;;7.91;100.00;99318.38;10583333;28;20582;-74
2021/04/19 01:25:14;;;;;;;4.60;3.23;;;;;;;7.85;100.00;99322.59;10584644;28;20199;-74
2021/04/19 01:30:42;;;;;;;4.50;4.10;;;;;;;7.85;100.00;99321.81;10568470;28;20626;-75
2021/04/19 01:36:01;;;;;;;12.93;4.93;;;;;;;7.85;100.00;99311.63;10567141;28;20181;-75
2021/04/19 01:41:21;;;;;;;3.77;3.10;;;;;;;7.86;100.00;99312.44;10583519;28;20242;-75
2021/04/19 01:46:40;;;;;;;6.37;3.77;;;;;;;7.87;100.00;99314.03;10582506;28;20637;-74
2021/04/19 01:52:00;;;;;;;4.67;3.20;;;;;;;7.84;100.00;99307.31;10583723;28;20181;-75
2021/04/19 01:57:19;;;;;;;8.63;3.23;;;;;;;7.85;100.00;99310.84;10583058;28;20631;-74
2021/04/19 02:03:06;;;;;;;10.30;4.00;;;;;;;7.89;100.00;99310.50;10581774;28;20177;-75
2021/04/19 02:08:31;;;;;;;5.90;3.57;;;;;;;7.95;100.00;99303.56;10583023;28;20233;-75
2021/04/19 02:14:18;;;;;;;4.70;4.00;;;;;;;7.89;100.00;99304.25;10567255;28;20186;-75
2021/04/19 02:19:44;;;;;;;10.03;4.40;;;;;;;7.83;100.00;99302.22;10565656;28;20205;-75
2021/04/19 02:25:15;;;;;;;13.10;3.90;;;;;;;7.77;100.00;99312.72;10582492;28;20529;-75
2021/04/19 02:30:38;;;;;;;6.60;3.87;;;;;;;7.80;100.00;99306.50;10565974;28;20296;-74
2021/04/19 02:35:57;;;;;;;5.53;4.00;;;;;;;7.75;100.00;99309.59;10580706;28;20185;-75
2021/04/19 02:41:19;;;;;;;5.77;4.30;;;;;;;7.75;100.00;99314.25;10581442;28;20209;-75
2021/04/19 02:46:38;;;;;;;3.97;2.70;;;;;;;7.83;100.00;99297.56;10580522;28;20177;-74
2021/04/19 02:52:01;;;;;;;9.57;3.80;;;;;;;7.78;100.00;99297.88;10566239;28;20181;-75
2021/04/19 02:57:27;;;;;;;8.63;3.20;;;;;;;7.81;100.00;99297.13;10565927;28;20593;-75
2021/04/19 03:02:47;;;;;;;10.57;4.80;;;;;;;7.75;100.00;99295.91;10580016;28;20607;-75
2021/04/19 03:08:14;;;;;;;3.90;3.40;;;;;;;7.86;100.00;99294.03;10581283;28;20169;-75
2021/04/19 03:13:37;;;;;;;6.00;2.67;;;;;;;7.80;100.00;99292.81;10589279;28;20200;-75
2021/04/19 03:18:59;;;;;;;7.47;4.63;;;;;;;7.76;100.00;99291.19;10572844;28;20196;-74
2021/04/19 03:24:20;;;;;;;6.47;4.00;;;;;;;7.66;100.00;99294.59;10574080;28;20252;-74
2021/04/19 03:29:41;;;;;;;6.90;4.20;;;;;;;7.66;100.00;99300.88;10588716;28;20220;-74
2021/04/19 03:35:08;;;;;;;3.13;2.67;;;;;;;7.60;100.00;99299.63;10572334;28;20217;-74
2021/04/19 03:40:35;;;;;;;11.63;5.03;;;;;;;7.58;100.00;99296.50;10573164;28;20197;-74
2021/04/19 03:45:58;;;;;;;4.30;3.60;;;;;;;7.66;100.00;99297.34;10588798;28;20173;-74
2021/04/19 03:51:20;;;;;;;4.10;3.70;;;;;;;7.65;100.00;99296.56;10588381;28;20177;-75
2021/04/19 03:56:40;;;;;;;5.60;2.60;;;;;;;7.61;100.00;99292.22;10588428;28;20528;-74
2021/04/19 04:02:05;;;;;;;6.50;5.57;;;;;;;7.53;100.00;99291.34;10570824;28;20204;-74
2021/04/19 04:07:26;;;;;;;8.93;5.70;;;;;;;7.52;100.00;99297.19;10572239;28;20530;-73
2021/04/19 04:12:45;;;;;;;12.03;5.50;;;;;;;7.43;100.00;99291.22;10587588;28;20204;-75
2021/04/19 04:18:04;;;;;;;3.90;3.30;;;;;;;7.43;100.00;99302.94;10585652;28;20193;-75
2021/04/19 04:23:23;;;;;;;5.20;4.27;;;;;;;7.41;100.00;99304.47;10586996;28;20185;-74
2021/04/19 04:28:46;;;;;;;4.47;4.17;;;;;;;7.43;100.00;99313.88;10586633;28;20213;-75
2021/04/19 04:34:05;;;;;;;4.87;3.33;;;;;;;7.42;100.00;99309.59;10585607;28;20174;-74
2021/04/19 04:39:24;;;;;;;6.00;4.40;;;;;;;7.44;100.00;99315.47;10585671;28;20690;-76
2021/04/19 04:44:48;;;;;;;7.53;3.80;;;;;;;7.39;100.00;99306.81;10586453;28;20550;-75
2021/04/19 04:50:17;;;;;;;5.20;4.33;;;;;;;7.45;100.00;99317.06;10584847;28;20558;-75
2021/04/19 04:55:37;;;;;;;4.40;3.60;;;;;;;7.47;100.00;99320.22;10585960;28;20181;-75
2021/04/19 05:00:58;;;;;;;5.20;4.73;;;;;;;7.47;100.00;99313.97;10569806;28;20216;-74
2021/04/19 05:06:18;;;;;;;7.93;5.00;;;;;;;7.50;100.00;99324.94;10585190;28;20173;-74
2021/04/19 05:11:41;;;;;;;9.80;5.27;;;;;;;7.59;100.00;99327.38;10492129;28;20290;-75
2021/04/19 05:17:00;;;;;;;9.60;3.80;;;;;;;7.71;100.00;99329.88;10483759;28;20170;-75
2021/04/19 05:22:19;;;;;;;3.63;3.37;;;;;;;7.82;100.00;99323.34;10500195;28;20199;-75
2021/04/19 05:27:39;;;;;;;4.30;3.43;;;;;;;7.83;100.00;99324.13;10485044;28;20293;-76
2021/04/19 05:32:59;;;;;;;5.77;3.37;;;;;;;7.86;100.00;99332.38;10498257;28;20190;-75
2021/04/19 05:38:21;;;;;;;4.67;4.23;;;;;;;7.96;100.00;99324.28;10499692;28;20207;-76
2021/04/19 05:43:42;;;;;;;7.80;4.50;;;;;;;8.09;100.00;99320.13;10484741;28;20554;-75
2021/04/19 05:49:01;;;;;;;5.50;3.77;;;;;;;8.13;100.00;99329.13;10498374;28;20163;-75
2021/04/19 05:54:20;;;;;;;5.00;3.67;;;;;;;8.21;100.00;99328.06;10499185;28;20202;-75
2021/04/19 05:59:55;;;;;;;3.63;2.93;;;;;;;8.56;100.00;99331.13;10498920;28;20674;-75
2021/04/19 06:05:41;;;;;;;4.90;3.30;;;;;;;8.43;100.00;99337.28;10497785;28;20179;-75
2021/04/19 06:11:09;;;;;;;6.73;3.77;;;;;;;8.52;100.00;99343.22;10475461;28;20657;-75
2021/04/19 06:16:30;;;;;;;5.50;4.60;;;;;;;8.53;100.00;99342.06;10482299;28;20170;-75
2021/04/19 06:21:51;;;;;;;3.67;3.30;;;;;;;8.34;100.00;99347.75;10482724;28;20207;-74
2021/04/19 06:27:10;;;;;;;5.57;3.87;;;;;;;8.27;100.00;99348.50;10498010;28;20673;-74
2021/04/19 06:32:29;;;;;;;5.77;3.17;;;;;;;8.26;100.00;99351.59;10496860;28;20194;-74
2021/04/19 06:37:56;;;;;;;4.53;3.90;;;;;;;8.28;100.00;99349.28;10498068;28;20175;-74
2021/04/19 06:43:17;;;;;;;4.70;3.27;;;;;;;8.33;100.00;99351.66;10497794;28;20178;-73
2021/04/19 06:48:36;;;;;;;2.60;1.93;;;;;;;8.45;100.00;99352.19;10496352;28;20644;-74
2021/04/19 06:53:56;;;;;;;13.83;2.93;;;;;;;8.64;100.00;99351.19;10514304;28;20186;-74
2021/04/19 06:59:19;;;;;;;2.77;2.57;;;;;;;8.89;100.00;99347.44;10507489;28;20206;-74
2021/04/19 07:04:39;;;;;;;5.40;2.97;;;;;;;8.73;100.00;99347.72;10480906;28;20186;-74
2021/04/19 07:10:03;;;;;;;4.03;3.57;;;;;;;8.72;100.00;99347.31;10533674;28;20542;-76
2021/04/19 07:15:23;;;;;;;9.53;5.40;;;;;;;8.97;100.00;99344.34;10538967;28;20177;-77
2021/04/19 07:20:44;;;;;;;5.20;3.23;;;;;;;9.21;100.00;99340.19;10536932;28;20578;-76
2021/04/19 07:26:04;;;;;;;6.57;3.30;;;;;;;9.32;100.00;99341.81;10523107;28;20257;-76
2021/04/19 07:31:24;;;;;;;6.47;3.70;;;;;;;9.19;100.00;99345.28;10537088;28;20174;-76
2021/04/19 07:36:49;;;;;;;4.77;3.70;;;;;;;9.15;100.00;99349.97;10538603;28;20268;-77
2021/04/19 07:42:09;;;;;;;9.10;3.00;;;;;;;9.13;100.00;99352.31;10522458;28;20206;-74
2021/04/19 07:47:41;;;;;;;7.10;4.67;;;;;;;9.12;100.00;99353.47;10537194;28;20178;-76
2021/04/19 07:53:04;;;;;;;4.93;3.53;;;;;;;9.26;100.00;99346.13;10538330;28;20201;-75
2021/04/19 07:58:25;;;;;;;5.57;3.90;;;;;;;9.23;100.00;99346.88;10543576;28;20194;-75
2021/04/19 08:03:44;;;;;;;7.70;4.70;;;;;;;9.27;100.00;99341.41;10504118;28;20272;-75
2021/04/19 08:09:06;;;;;;;9.40;4.47;;;;;;;9.41;100.00;99342.28;10529609;28;20182;-75
2021/04/19 08:14:31;;;;;;;3.57;3.27;;;;;;;9.41;100.00;99345.00;10529921;28;20194;-75
2021/04/19 08:19:50;;;;;;;5.13;2.57;;;;;;;9.59;100.00;99348.63;10528136;28;20206;-75
2021/04/19 08:25:21;;;;;;;9.27;4.20;;;;;;;10.17;100.00;99352.00;10545108;28;20631;-75
2021/04/19 08:30:43;;;;;;;3.80;3.40;;;;;;;10.19;100.00;99352.38;10544004;28;20221;-75
2021/04/19 08:36:05;;;;;;;4.27;3.67;;;;;;;10.07;100.00;99348.03;10527951;28;20170;-75
2021/04/19 08:41:26;;;;;;;7.77;4.47;;;;;;;10.06;100.00;99351.16;10543698;28;20210;-74
2021/04/19 08:46:46;;;;;;;13.53;5.37;;;;;;;10.11;100.00;99359.03;10527634;28;20170;-76
2021/04/19 08:52:06;;;;;;;5.20;3.97;;;;;;;9.94;100.00;99356.97;10536887;28;20628;-75
2021/04/19 08:57:25;;;;;;;7.20;5.50;;;;;;;10.44;100.00;99363.00;10543762;28;20178;-75
2021/04/19 09:02:44;;;;;;;9.47;5.43;;;;;;;10.64;100.00;99366.16;10542161;28;20624;-75
2021/04/19 09:08:08;;;;;;;13.70;5.20;;;;;;;11.08;100.00;99364.56;10542020;28;20191;-74
2021/04/19 09:13:39;;;;;;;11.90;5.47;;;;;;;11.21;100.00;99363.00;10527637;28;20277;-74
2021/04/19 09:19:00;;;;;;;12.83;4.73;;;;;;;11.17;100.00;99362.19;10525952;28;20209;-75
2021/04/19 09:24:23;;;;;;;6.80;4.03;;;;;;;11.26;100.00;99360.63;10527268;28;20617;-75
2021/04/19 09:29:44;;;;;;;9.13;5.70;;;;;;;11.27;100.00;99362.19;10526368;28;20210;-76
2021/04/19 09:35:03;;;;;;;14.03;6.27;;;;;;;11.16;100.00;99355.13;10540694;28;20174;-75
2021/04/19 09:40:24;;;;;;;9.70;4.93;;;;;;;11.00;100.00;99362.22;10525959;28;20577;-75
2021/04/19 09:45:46;;;;;;;11.63;5.30;;;;;;;10.69;100.00;99363.81;10541979;28;20775;-74
2021/04/19 09:51:27;;;;;;;8.10;4.43;;;;;;;10.61;100.00;99354.00;10522539;28;20633;-76
2021/04/19 09:56:49;;;;;;;12.87;6.57;;;;;;;10.49;100.00;99361.84;10507590;28;20198;-75
2021/04/19 10:02:12;;;;;;;13.10;6.57;;;;;;;10.38;100.00;99359.09;10524197;28;20206;-75
2021/04/19 10:07:36;;;;;;;7.27;4.77;;;;;;;10.35;100.00;99353.59;10540803;28;20181;-76
2021/04/19 10:12:56;;;;;;;15.40;7.03;;;;;;;10.31;100.00;99361.03;10524641;28;20193;-75
2021/04/19 10:18:16;;;;;;;12.27;6.80;;;;;;;10.52;100.00;99352.81;10534136;28;20241;-76
2021/04/19 10:23:39;;;;;;;10.77;6.47;;;;;;;10.93;100.00;99352.00;10504857;28;20186;-77
2021/04/19 10:28:58;;;;;;;10.50;6.40;;;;;;;11.14;100.00;99347.25;10497758;28;20693;-75
2021/04/19 10:34:19;;;;;;;10.90;6.40;;;;;;;11.40;100.00;99346.81;10488018;28;20268;-75
2021/04/19 10:39:38;;;;;;;15.33;5.40;;;;;;;11.73;100.00;99348.28;10539568;28;20205;-75
2021/04/19 10:45:07;;;;;;;6.53;5.20;;;;;;;11.84;100.00;99351.78;10539692;28;20178;-75
2021/04/19 10:50:31;;;;;;;7.03;4.80;;;;;;;11.91;100.00;99346.25;10522991;28;20173;-76
2021/04/19 10:55:58;;;;;;;11.20;5.07;;;;;;;12.50;100.00;99335.63;10539600;28;20170;-77
2021/04/19 11:01:32;;;;;;;9.73;5.97;;;;;;;13.08;100.00;99332.78;10537624;28;20206;-77
2021/04/19 11:06:51;;;;;;;13.77;6.87;;;;;;;13.18;100.00;99326.34;10539321;28;20616;-76
2021/04/19 11:12:10;;;;;;;4.33;3.93;;;;;;;12.68;100.00;99330.72;10517678;28;20719;-74
2021/04/19 11:17:29;;;;;;;16.20;6.07;;;;;;;12.48;100.00;99334.47;10522452;28;20170;-74
2021/04/19 11:22:48;;;;;;;11.30;6.10;;;;;;;12.13;100.00;99332.72;10523620;28;20190;-75
2021/04/19 11:28:29;;;;;;;11.63;4.00;;;;;;;11.86;100.00;99328.16;10522970;28;20308;-76
2021/04/19 11:34:14;;;;;;;14.90;5.90;;;;;;;11.64;100.00;99331.38;10544022;28;20543;-74
2021/04/19 11:39:38;;;;;;;7.70;4.53;;;;;;;11.42;100.00;99333.44;10546569;28;20671;-74
2021/04/19 11:44:57;;;;;;;5.57;3.53;;;;;;;11.26;100.00;99330.34;10531066;28;20253;-75
2021/04/19 11:50:17;;;;;;;5.40;4.40;;;;;;;11.29;100.00;99332.28;10500350;28;20190;-73
2021/04/19 11:55:36;;;;;;;9.70;4.73;;;;;;;11.23;100.00;99330.31;10530636;28;20165;-73
2021/04/19 12:00:55;;;;;;;4.13;3.67;;;;;;;11.30;100.00;99331.09;10530176;28;20296;-75
2021/04/19 12:06:15;;;;;;;11.00;4.70;;;;;;;11.43;100.00;99331.44;10540968;28;20195;-74
2021/04/19 12:11:33;;;;;;;13.13;6.30;;;;;;;11.57;100.00;99328.66;10488452;28;20199;-77
2021/04/19 12:16:54;;;;;;;9.03;5.97;;;;;;;11.51;100.00;99322.75;10487047;28;20210;-77
2021/04/19 12:22:13;;;;;;;9.40;4.27;;;;;;;11.51;100.00;99328.25;10487539;28;20660;-76
2021/04/19 12:27:32;;;;;;;7.10;4.60;;;;;;;11.63;100.00;99316.06;10502429;28;20301;-76
2021/04/19 12:32:51;;;;;;;7.17;4.70;;;;;;;11.78;100.00;99317.56;10486324;28;20182;-77
2021/04/19 12:38:11;;;;;;;10.17;4.07;;;;;;;11.94;100.00;99321.41;10489579;28;20206;-76
2021/04/19 12:43:30;;;;;;;6.80;3.53;;;;;;;12.13;100.00;99313.41;10544092;28;20182;-78
2021/04/19 12:48:49;;;;;;;7.40;4.10;;;;;;;12.03;100.00;99314.25;10527631;28;20217;-74
2021/04/19 12:54:08;;;;;;;7.37;4.50;;;;;;;12.07;100.00;99317.78;10528505;28;20182;-76
2021/04/19 12:59:27;;;;;;;5.90;4.33;;;;;;;11.77;100.00;99310.47;10527872;28;20650;-78
2021/04/19 13:04:46;;;;;;;7.37;4.37;;;;;;;11.75;100.00;99310.88;10542155;28;20253;-77
2021/04/19 13:10:05;;;;;;;4.97;4.47;;;;;;;11.61;100.00;99312.91;10543320;28;20205;-73
2021/04/19 13:15:25;;;;;;;12.63;5.70;;;;;;;11.72;100.00;99310.88;10543115;28;20197;-78
2021/04/19 13:20:44;;;;;;;9.33;6.67;;;;;;;11.62;100.00;99311.75;10525844;28;20206;-75
2021/04/19 13:26:03;;;;;;;7.20;5.93;;;;;;;11.71;100.00;99307.34;10542471;28;20166;-73
2021/04/19 13:31:22;;;;;;;10.10;4.47;;;;;;;11.83;100.00;99306.13;10541142;28;20178;-74
2021/04/19 13:36:41;;;;;;;6.57;4.53;;;;;;;11.91;100.00;99302.13;10542319;28;20202;-73
2021/04/19 13:42:01;;;;;;;13.33;5.80;;;;;;;11.93;100.00;99293.06;10554837;28;20205;-75
2021/04/19 13:47:20;;;;;;;10.40;6.17;;;;;;;11.98;100.00;99287.13;10540591;28;20528;-78
2021/04/19 13:52:39;;;;;;;8.03;4.90;;;;;;;12.00;100.00;99290.25;10525781;28;20170;-76
2021/04/19 13:57:57;;;;;;;7.80;4.70;;;;;;;12.02;100.00;99284.34;10525461;28;20170;-73
2021/04/19 14:03:16;;;;;;;11.40;5.17;;;;;;;12.02;100.00;99282.38;10540044;28;20170;-73
2021/04/19 14:08:35;;;;;;;8.40;5.53;;;;;;;12.16;100.00;99276.75;10525603;28;20198;-74
2021/04/19 14:13:54;;;;;;;9.67;5.30;;;;;;;12.29;100.00;99268.78;10540902;28;20170;-73
2021/04/19 14:19:13;;;;;;;13.60;6.37;;;;;;;12.22;100.00;99275.13;10539036;28;20209;-76
2021/04/19 14:24:34;;;;;;;16.40;10.30;;;;;;;12.41;100.00;99266.31;10540423;28;20181;-74
2021/04/19 14:29:53;;;;;;;8.53;4.83;;;;;;;12.53;94.48;99265.03;10524308;28;20214;-73
2021/04/19 14:35:12;;;;;;;8.87;3.93;;;;;;;12.32;100.00;99263.25;10523512;28;20174;-74
2021/04/19 14:40:31;;;;;;;7.93;5.50;;;;;;;12.23;95.18;99256.63;10539531;28;20209;-76
2021/04/19 14:45:50;;;;;;;7.13;4.17;;;;;;;12.22;100.00;99258.59;10524323;28;20174;-76
2021/04/19 14:51:09;;;;;;;7.00;4.67;;;;;;;12.25;97.65;99263.31;10523045;28;20562;-76
2021/04/19 14:56:28;;;;;;;8.63;4.63;;;;;;;12.23;97.74;99254.63;10539338;28;20223;-74
2021/04/19 15:01:47;;;;;;;8.13;4.17;;;;;;;12.21;100.00;99245.22;10537345;28;20206;-75
2021/04/19 15:07:08;;;;;;;5.07;3.73;;;;;;;12.42;93.56;99240.31;10538122;28;20235;-75
2021/04/19 15:12:27;;;;;;;4.27;3.00;;;;;;;12.61;93.20;99241.69;10523700;28;20177;-76
2021/04/19 15:17:46;;;;;;;3.90;3.47;;;;;;;12.46;95.46;99243.81;10537659;28;20207;-75
2021/04/19 15:23:08;;;;;;;8.60;4.80;;;;;;;12.73;97.89;99247.50;10523576;28;20182;-74
2021/04/19 15:28:28;;;;;;;5.87;3.37;;;;;;;12.78;93.35;99244.28;10523023;28;20221;-76
2021/04/19 15:33:47;;;;;;;5.60;3.43;;;;;;;12.75;92.68;99247.88;10537506;28;20178;-78
2021/04/19 15:39:07;;;;;;;5.63;4.07;;;;;;;12.84;92.47;99248.19;10538471;28;20289;-79
2021/04/19 15:44:26;;;;;;;8.53;4.77;;;;;;;13.10;89.66;99245.56;10523361;28;20182;-78
2021/04/19 15:49:45;;;;;;;10.00;6.07;;;;;;;13.01;93.13;99241.69;10537352;28;20170;-77
2021/04/19 15:55:05;;;;;;;5.47;3.60;;;;;;;13.12;90.30;99240.41;10538314;28;20621;-76
2021/04/19 16:00:25;;;;;;;4.40;3.23;;;;;;;13.06;89.93;99230.22;10522643;28;20202;-74
2021/04/19 16:05:44;;;;;;;9.20;4.43;;;;;;;13.09;91.21;99237.66;10521265;28;20182;-73
2021/04/19 16:11:03;;;;;;;6.07;4.10;;;;;;;13.16;90.67;99226.56;10538037;28;20190;-73
2021/04/19 16:16:22;;;;;;;7.60;3.93;;;;;;;13.16;93.18;99240.38;10537427;28;20182;-74
2021/04/19 16:21:41;;;;;;;4.73;3.30;;;;;;;13.09;92.77;99237.66;10545047;28;20233;-74
2021/04/19 16:27:01;;;;;;;7.67;3.87;;;;;;;13.08;92.07;99234.13;10529266;28;20218;-77
2021/04/19 16:32:21;;;;;;;5.77;4.23;;;;;;;12.97;91.38;99238.19;10543591;28;20174;-73
2021/04/19 16:37:40;;;;;;;6.17;3.20;;;;;;;12.83;92.91;99241.09;10544684;28;20166;-73
2021/04/19 16:42:59;;;;;;;3.67;3.03;;;;;;;12.45;96.16;99233.94;10544462;28;20174;-73
2021/04/19 16:48:18;;;;;;;6.20;4.30;;;;;;;12.17;100.00;99228.69;10527486;28;20170;-73
2021/04/19 16:53:36;;;;;;;4.30;3.17;;;;;;;12.24;100.00;99231.38;10543573;28;20569;-75
2021/04/19 16:58:55;;;;;;;6.00;4.70;;;;;;;12.42;98.46;99223.75;10543745;28;20197;-76
2021/04/19 17:04:14;;;;;;;3.93;2.77;;;;;;;12.29;100.00;99222.66;10542299;28;20182;-73
2021/04/19 17:09:33;;;;;;;5.10;3.60;;;;;;;12.27;100.00;99227.81;10543383;28;20194;-74
2021/04/19 17:14:53;;;;;;;7.53;3.70;;;;;;;12.03;100.00;99239.03;10543164;28;20633;-78
2021/04/19 17:20:15;;;;;;;8.20;4.50;;;;;;;11.83;100.00;99237.19;10541358;28;20653;-76
2021/04/19 17:25:35;;;;;;;4.40;3.10;;;;;;;11.68;100.00;99235.72;10527390;28;20178;-74
2021/04/19 17:30:54;;;;;;;7.40;4.77;;;;;;;11.47;100.00;99236.59;10525426;28;20312;-75
2021/04/19 17:36:13;;;;;;;8.00;4.33;;;;;;;11.38;100.00;99239.00;10541015;28;20166;-78
2021/04/19 17:41:33;;;;;;;5.17;4.67;;;;;;;11.20;100.00;99237.50;10541590;28;20284;-79
2021/04/19 17:46:52;;;;;;;6.47;4.57;;;;;;;10.96;100.00;99241.13;10540684;28;20182;-76
2021/04/19 17:52:11;;;;;;;7.10;3.80;;;;;;;10.75;100.00;99246.66;10541836;28;20174;-73
2021/04/19 17:57:30;;;;;;;5.60;4.23;;;;;;;10.58;100.00;99250.22;10541580;28;20272;-75
2021/04/19 18:02:52;;;;;;;5.03;4.13;;;;;;;10.43;100.00;99254.19;10539149;28;20592;-75
2021/04/19 18:08:11;;;;;;;6.67;4.60;;;;;;;10.30;100.00;99257.72;10525597;28;20190;-73
2021/04/19 18:13:31;;;;;;;3.07;2.73;;;;;;;10.12;100.00;99261.63;10525555;28;20178;-74
2021/04/19 18:18:50;;;;;;;4.77;4.37;;;;;;;9.95;100.00;99262.38;10539380;28;20603;-74
2021/04/19 18:24:09;;;;;;;7.00;3.70;;;;;;;9.77;100.00;99262.34;10540589;28;20554;-75
2021/04/19 18:29:28;;;;;;;7.80;3.40;;;;;;;9.47;100.00;99266.56;10539861;28;20691;-77
2021/04/19 18:34:47;;;;;;;4.47;4.03;;;;;;;9.15;100.00;99268.41;10539060;28;20174;-78
2021/04/19 18:40:07;;;;;;;6.33;3.47;;;;;;;8.93;100.00;99277.72;10539514;28;20569;-78
2021/04/19 18:45:30;;;;;;;4.90;2.53;;;;;;;9.04;100.00;99283.25;10539993;28;20181;-75
2021/04/19 18:50:50;;;;;;;5.97;3.60;;;;;;;8.85;100.00;99281.59;10538210;28;20239;-73
2021/04/19 18:56:09;;;;;;;6.00;4.10;;;;;;;8.78;100.00;99286.22;10539554;28;20170;-75
2021/04/19 19:01:28;;;;;;;4.90;2.97;;;;;;;8.62;100.00;99282.22;10522212;28;20241;-73
2021/04/19 19:06:48;;;;;;;7.87;3.70;;;;;;;8.44;100.00;99295.78;10539350;28;20653;-74
2021/04/19 19:12:07;;;;;;;9.40;4.27;;;;;;;8.20;100.00;99292.84;10524042;28;20170;-76
2021/04/19 19:17:26;;;;;;;6.03;4.60;;;;;;;7.98;100.00;99300.03;10537429;28;20257;-76
2021/04/19 19:22:46;;;;;;;10.63;5.40;;;;;;;8.01;100.00;99301.22;10538400;28;20288;-76
2021/04/19 19:28:04;;;;;;;9.40;3.60;;;;;;;7.97;100.00;99303.16;10538264;28;20580;-74
2021/04/19 19:33:24;;;;;;;4.37;4.00;;;;;;;7.96;100.00;99307.06;10537409;28;20324;-75
2021/04/19 19:38:44;;;;;;;4.17;3.50;;;;;;;7.97;100.00;99303.16;10523090;28;20201;-75
2021/04/19 19:44:04;;;;;;;6.03;5.53;;;;;;;7.82;100.00;99301.44;10538582;28;20723;-73
2021/04/19 19:49:23;;;;;;;3.43;2.67;;;;;;;7.63;100.00;99304.38;10537283;28;20174;-74
2021/04/19 19:54:43;;;;;;;7.73;4.73;;;;;;;7.62;100.00;99299.28;10544603;28;20189;-75
2021/04/19 20:00:04;;;;;;;4.53;2.27;;;;;;;7.29;100.00;99302.00;10530758;28;20202;-75
2021/04/19 20:05:23;;;;;;;7.47;5.30;;;;;;;7.04;100.00;99300.09;10544551;28;20174;-75
2021/04/19 20:10:43;;;;;;;6.53;4.03;;;;;;;6.87;100.00;99295.16;10545475;28;20186;-75
2021/04/19 20:16:03;;;;;;;7.30;3.30;;;;;;;6.77;100.00;99295.81;10545527;28;20221;-77
2021/04/19 20:21:22;;;;;;;6.87;3.33;;;;;;;6.68;100.00;99298.03;10544573;28;20217;-75
2021/04/19 20:26:41;;;;;;;3.77;3.50;;;;;;;6.72;100.00;99294.19;10544789;28;20221;-76
2021/04/19 20:32:00;;;;;;;8.97;3.77;;;;;;;6.62;100.00;99304.97;10527777;28;20593;-76
2021/04/19 20:37:20;;;;;;;3.47;3.17;;;;;;;6.60;100.00;99290.88;10544888;28;20186;-75
2021/04/19 20:42:38;;;;;;;4.30;3.90;;;;;;;6.48;100.00;99291.88;10544064;28;20596;-75
2021/04/19 20:47:58;;;;;;;4.50;3.57;;;;;;;6.36;100.00;99291.28;10543163;28;20182;-73
2021/04/19 20:53:17;;;;;;;15.20;5.07;;;;;;;6.16;100.00;99294.47;10528830;28;20182;-75
2021/04/19 20:58:36;;;;;;;6.60;3.67;;;;;;;5.94;100.00;99290.56;10543860;28;20234;-76
2021/04/19 21:03:55;;;;;;;2.67;2.37;;;;;;;5.86;100.00;99293.53;10542144;28;20178;-76
2021/04/19 21:09:14;;;;;;;5.90;3.83;;;;;;;5.78;100.00;99291.81;10543331;28;20193;-75
2021/04/19 21:14:33;;;;;;;5.50;4.43;;;;;;;5.64;100.00;99289.63;10527807;28;20192;-75
2021/04/19 21:19:52;;;;;;;6.77;4.47;;;;;;;5.62;100.00;99302.81;10526359;28;20214;-76
2021/04/19 21:25:11;;;;;;;56.77;5.40;;;;;;;5.66;100.00;99297.44;10542834;28;20632;-76
2021/04/19 21:30:30;;;;;;;7.13;4.03;;;;;;;5.65;100.00;99288.44;10542079;28;20213;-76
2021/04/19 21:35:49;;;;;;;4.70;3.97;;;;;;;5.58;100.00;99288.31;10525651;28;20174;-75
2021/04/19 21:41:09;;;;;;;2.50;2.10;;;;;;;5.42;100.00;99294.22;10526550;28;20233;-77
2021/04/19 21:46:29;;;;;;;8.80;3.57;;;;;;;5.19;100.00;99288.72;10540747;28;20186;-73
2021/04/19 21:51:48;;;;;;;2.53;2.33;;;;;;;5.14;100.00;99296.38;10541391;28;20197;-73
2021/04/19 21:57:07;;;;;;;11.50;6.87;;;;;;;4.99;100.00;99286.34;10526194;28;20186;-73
2021/04/19 22:02:26;;;;;;;6.23;5.20;;;;;;;5.24;100.00;99282.19;10539411;28;20206;-74
2021/04/19 22:07:45;;;;;;;2.27;2.07;;;;;;;4.92;100.00;99288.91;10540970;28;20197;-73
2021/04/19 22:13:06;;;;;;;2.93;2.73;;;;;;;4.71;100.00;99287.66;10525468;28;20181;-74
2021/04/19 22:18:25;;;;;;;4.03;2.67;;;;;;;4.59;100.00;99294.00;10539098;28;20178;-74
2021/04/19 22:23:44;;;;;;;11.47;3.33;;;;;;;4.52;100.00;99293.84;10525118;28;20624;-76
2021/04/19 22:29:08;;;;;;;3.90;3.53;;;;;;;4.48;100.00;99287.53;10524460;28;20253;-75
2021/04/19 22:34:26;;;;;;;5.40;4.60;;;;;;;4.52;100.00;99293.84;10538701;28;20178;-75
2021/04/19 22:39:46;;;;;;;11.43;4.30;;;;;;;4.61;100.00;99299.09;10524207;28;20214;-75
2021/04/19 22:45:06;;;;;;;3.00;2.53;;;;;;;4.66;100.00;99285.19;10524655;28;20181;-74
2021/04/19 22:50:25;;;;;;;3.90;2.70;;;;;;;4.65;100.00;99286.31;10538303;28;20253;-75
2021/04/19 22:55:44;;;;;;;5.97;3.57;;;;;;;4.50;100.00;99285.25;10539170;28;20532;-75
2021/04/19 23:01:03;;;;;;;7.73;5.17;;;;;;;4.24;100.00;99295.13;10523740;28;20284;-75
2021/04/19 23:06:22;;;;;;;13.03;2.80;;;;;;;4.10;100.00;99287.38;10523761;28;20667;-74
2021/04/19 23:11:44;;;;;;;6.10;3.13;;;;;;;4.20;100.00;99281.41;10524017;28;20219;-74
2021/04/19 23:17:03;;;;;;;10.53;3.80;;;;;;;4.26;100.00;99281.91;10537712;28;20198;-74
2021/04/19 23:22:22;;;;;;;3.87;3.50;;;;;;;4.19;100.00;99277.13;10538189;28;20642;-75
2021/04/19 23:27:42;;;;;;;5.87;5.27;;;;;;;4.13;100.00;99270.34;10526490;28;20235;-75
2021/04/19 23:33:01;;;;;;;3.73;2.83;;;;;;;4.04;100.00;99277.88;10546233;28;20174;-75
2021/04/19 23:38:20;;;;;;;2.50;2.30;;;;;;;3.86;100.00;99269.66;10546957;28;20174;-74
2021/04/19 23:43:39;;;;;;;2.67;2.50;;;;;;;3.71;100.00;99268.50;10547024;28;20182;-73
2021/04/19 23:48:58;;;;;;;6.60;3.17;;;;;;;3.68;100.00;99271.13;10545378;28;20170;-75
2021/04/19 23:54:17;;;;;;;3.23;3.03;;;;;;;3.67;100.00;99274.97;10546535;28;20178;-75
2021/04/19 23:59:35;;;;;;;3.80;1.57;;;;;;;3.61;100.00;99270.94;10530566;28;20201;-75
